Time;durP1;ratioP1;P1;durP2;ratioP2;P2;SDS_P1;SDS_P2;PMS_P1;PMS_P2;Temp;Humidity;BMP_temperature;BMP_pressure;BME280_temperature;BME280_humidity;BME280_pressure;Samples;Min_cycle;Max_cycle;Signal;HPM_P1;HPM_P2
2022/04/03 00:01:12;;;;;;;0.10;0.10;;;;;;;7.07;48.08;102248.41;7349852;19;20018;-57
2022/04/03 00:03:38;;;;;;;0.00;0.00;;;;;;;7.01;48.59;102260.44;7357117;19;20667;-56
2022/04/03 00:06:03;;;;;;;0.00;0.00;;;;;;;6.99;48.86;102264.75;7361661;19;20014;-56
2022/04/03 00:08:31;;;;;;;0.00;0.00;;;;;;;6.93;48.50;102261.13;7356782;19;20029;-58
2022/04/03 00:10:56;;;;;;;0.00;0.00;;;;;;;6.93;48.64;102275.00;7361520;19;20014;-58
2022/04/03 00:13:22;;;;;;;0.00;0.00;;;;;;;6.89;49.22;102277.50;7353763;19;20010;-58
2022/04/03 00:15:48;;;;;;;0.00;0.00;;;;;;;6.81;48.85;102269.59;7360644;19;20722;-59
2022/04/03 00:18:14;;;;;;;0.00;0.00;;;;;;;6.80;49.40;102273.03;7359401;19;20010;-58
2022/04/03 00:20:41;;;;;;;0.00;0.00;;;;;;;6.75;49.38;102272.09;7354642;19;20823;-58
2022/04/03 00:23:07;;;;;;;0.07;0.07;;;;;;;6.61;49.13;102252.78;7358727;19;20010;-57
2022/04/03 00:25:33;;;;;;;0.00;0.00;;;;;;;6.73;48.90;102278.97;7349408;19;20040;-59
2022/04/03 00:27:58;;;;;;;0.00;0.00;;;;;;;6.70;49.16;102278.91;7360493;19;20010;-57
2022/04/03 00:30:24;;;;;;;0.00;0.00;;;;;;;6.64;49.40;102278.78;7352958;19;20007;-59
2022/04/03 00:32:49;;;;;;;0.00;0.00;;;;;;;6.62;49.67;102276.16;7359484;19;20398;-56
2022/04/03 00:35:16;;;;;;;0.00;0.00;;;;;;;6.57;49.67;102272.59;7351876;19;20029;-57
2022/04/03 00:37:42;;;;;;;0.00;0.00;;;;;;;6.44;49.74;102265.44;7351343;19;20010;-58
2022/04/03 00:40:08;;;;;;;0.00;0.00;;;;;;;6.42;49.29;102267.13;7356397;19;20006;-58
2022/04/03 00:42:35;;;;;;;0.00;0.00;;;;;;;6.43;49.66;102279.25;7357882;19;20018;-56
2022/04/03 00:45:01;;;;;;;0.00;0.00;;;;;;;6.28;49.54;102258.19;7355749;19;20576;-57
2022/04/03 00:47:27;;;;;;;0.00;0.00;;;;;;;6.37;49.49;102280.00;7352777;19;20011;-59
2022/04/03 00:49:53;;;;;;;0.00;0.00;;;;;;;6.20;50.12;102255.47;7353132;19;20017;-56
2022/04/03 00:52:20;;;;;;;0.00;0.00;;;;;;;6.15;50.37;102254.50;7352960;19;20014;-57
2022/04/03 00:54:47;;;;;;;0.00;0.00;;;;;;;6.26;50.46;102273.72;7358211;19;20014;-56
2022/04/03 00:57:13;;;;;;;0.00;0.00;;;;;;;6.13;50.75;102253.56;7354474;19;20010;-56
2022/04/03 00:59:42;;;;;;;0.00;0.00;;;;;;;6.06;50.07;102241.31;7356703;19;20081;-55
2022/04/03 01:02:08;;;;;;;0.00;0.00;;;;;;;6.19;49.99;102270.16;7353355;19;20478;-57
2022/04/03 01:04:37;;;;;;;0.00;0.00;;;;;;;6.18;49.59;102267.50;7359412;19;20028;-57
2022/04/03 01:07:02;;;;;;;0.00;0.00;;;;;;;6.01;50.33;102249.00;7350128;19;20014;-58
2022/04/03 01:09:28;;;;;;;0.00;0.00;;;;;;;5.82;50.60;102224.38;7360804;19;20039;-59
2022/04/03 01:11:53;;;;;;;0.00;0.00;;;;;;;5.90;50.54;102246.16;7352488;19;20016;-57
2022/04/03 01:14:39;;;;;;;0.00;0.00;;;;;;;6.02;49.42;102270.63;7356698;19;20050;-57
2022/04/03 01:17:07;;;;;;;0.00;0.00;;;;;;;5.97;51.11;102279.19;7354184;19;20010;-57
2022/04/03 01:19:32;;;;;;;0.00;0.00;;;;;;;5.56;50.90;102213.44;7354733;19;20015;-58
2022/04/03 01:21:58;;;;;;;0.00;0.00;;;;;;;5.92;50.80;102283.38;7355598;19;20050;-58
2022/04/03 01:24:25;;;;;;;0.00;0.00;;;;;;;5.90;51.08;102282.47;7355035;19;20742;-57
2022/04/03 01:26:51;;;;;;;0.00;0.00;;;;;;;5.86;51.41;102280.63;7347909;19;20014;-58
2022/04/03 01:29:17;;;;;;;0.00;0.00;;;;;;;5.76;51.70;102260.53;7345629;19;20352;-57
2022/04/03 01:31:44;;;;;;;0.00;0.00;;;;;;;5.83;50.94;102274.50;7356139;19;20006;-58
2022/04/03 01:34:09;;;;;;;0.00;0.00;;;;;;;5.80;51.49;102275.31;7356438;19;20021;-57
2022/04/03 01:36:35;;;;;;;0.00;0.00;;;;;;;5.65;51.86;102254.25;7347470;19;20034;-56
2022/04/03 01:39:00;;;;;;;0.00;0.00;;;;;;;5.78;51.38;102270.94;7347231;19;20074;-58
2022/04/03 01:41:25;;;;;;;0.00;0.00;;;;;;;5.38;52.11;102219.09;7357126;19;20128;-57
2022/04/03 01:43:51;;;;;;;0.00;0.00;;;;;;;5.73;51.37;102278.63;7350637;19;20010;-57
2022/04/03 01:46:16;;;;;;;0.10;0.10;;;;;;;5.68;51.48;102282.84;7358950;19;20032;-58
2022/04/03 01:48:42;;;;;;;0.00;0.00;;;;;;;5.59;51.57;102264.47;7353421;19;20006;-59
2022/04/03 01:51:07;;;;;;;0.00;0.00;;;;;;;5.52;51.88;102262.56;7346787;19;20025;-56
2022/04/03 01:53:33;;;;;;;0.00;0.00;;;;;;;5.63;52.23;102277.53;7357865;19;20006;-58
2022/04/03 01:56:04;;;;;;;0.00;0.00;;;;;;;5.41;51.29;102260.59;7347968;19;20006;-57
2022/04/03 01:58:30;;;;;;;0.00;0.00;;;;;;;5.47;52.51;102268.53;7345202;19;20017;-56
2022/04/03 02:00:56;;;;;;;0.00;0.00;;;;;;;5.55;52.48;102283.38;7355633;19;20014;-58
2022/04/03 02:03:21;;;;;;;0.00;0.00;;;;;;;5.53;52.58;102285.06;7348092;19;20022;-58
2022/04/03 02:05:47;;;;;;;0.00;0.00;;;;;;;5.49;51.93;102275.47;7355907;19;20352;-58
2022/04/03 02:08:12;;;;;;;0.00;0.00;;;;;;;5.49;52.86;102275.47;7355809;19;20026;-58
2022/04/03 02:10:38;;;;;;;0.00;0.00;;;;;;;5.32;52.17;102250.06;7348916;19;20010;-58
2022/04/03 02:13:04;;;;;;;0.00;0.00;;;;;;;5.43;52.62;102274.50;7347517;19;20018;-57
2022/04/03 02:15:30;;;;;;;0.00;0.00;;;;;;;5.39;52.53;102270.06;7356096;19;20018;-59
2022/04/03 02:17:55;;;;;;;0.00;0.00;;;;;;;5.41;51.91;102273.56;7355021;19;20013;-57
2022/04/03 02:20:20;;;;;;;0.00;0.00;;;;;;;5.31;52.03;102260.34;7353599;19;20022;-58
2022/04/03 02:22:46;;;;;;;0.10;0.10;;;;;;;5.27;52.26;102259.44;7355818;19;20026;-58
2022/04/03 02:25:13;;;;;;;0.00;0.00;;;;;;;5.22;52.57;102263.63;7348052;19;20022;-59
2022/04/03 02:27:39;;;;;;;0.00;0.00;;;;;;;5.25;52.56;102270.56;7354151;19;20014;-57
2022/04/03 02:30:08;;;;;;;0.00;0.00;;;;;;;5.16;52.92;102255.69;7353237;19;20452;-57
2022/04/03 02:32:35;;;;;;;0.00;0.00;;;;;;;4.92;52.83;102214.53;7336765;19;20023;-56
2022/04/03 02:35:00;;;;;;;0.00;0.00;;;;;;;5.17;53.16;102254.84;7343079;19;21417;-58
2022/04/03 02:37:25;;;;;;;0.00;0.00;;;;;;;5.18;52.99;102252.31;7338144;19;20010;-58
2022/04/03 02:39:51;;;;;;;0.00;0.00;;;;;;;5.07;52.76;102237.31;7353005;19;20011;-57
2022/04/03 02:42:16;;;;;;;0.00;0.00;;;;;;;4.98;52.79;102225.03;7344954;19;20017;-57
2022/04/03 02:44:42;;;;;;;0.00;0.00;;;;;;;5.11;52.93;102249.50;7355758;19;20022;-57
2022/04/03 02:47:08;;;;;;;0.00;0.00;;;;;;;5.12;53.00;102252.16;7339480;19;20046;-58
2022/04/03 02:49:33;;;;;;;0.10;0.10;;;;;;;5.13;52.68;102253.03;7361209;19;20010;-59
2022/04/03 02:51:59;;;;;;;0.00;0.00;;;;;;;5.02;53.04;102226.88;7354531;19;20029;-58
2022/04/03 02:54:24;;;;;;;0.00;0.00;;;;;;;5.06;53.20;102240.75;7362702;19;20025;-57
2022/04/03 02:56:49;;;;;;;0.00;0.00;;;;;;;5.07;52.96;102252.84;7358637;19;20030;-59
2022/04/03 02:59:16;;;;;;;0.00;0.00;;;;;;;5.05;52.88;102257.13;7353183;19;20054;-58
2022/04/03 03:01:41;;;;;;;0.10;0.10;;;;;;;4.53;53.49;102173.00;7360246;19;20003;-58
2022/04/03 03:04:06;;;;;;;0.00;0.00;;;;;;;4.89;53.11;102238.63;7357844;19;20682;-58
2022/04/03 03:06:32;;;;;;;0.00;0.00;;;;;;;4.97;53.43;102256.97;7356819;19;20398;-59
2022/04/03 03:08:58;;;;;;;0.00;0.00;;;;;;;4.91;53.84;102247.28;7344874;19;20078;-58
2022/04/03 03:11:23;;;;;;;0.00;0.00;;;;;;;4.92;53.91;102249.06;7358820;19;20006;-57
2022/04/03 03:13:49;;;;;;;0.00;0.00;;;;;;;4.91;53.53;102249.88;7357341;19;20104;-58
2022/04/03 03:16:14;;;;;;;0.00;0.00;;;;;;;4.84;53.52;102239.34;7354681;19;20017;-57
2022/04/03 03:18:40;;;;;;;0.00;0.00;;;;;;;4.88;53.49;102248.94;7344610;19;20572;-58
2022/04/03 03:21:05;;;;;;;0.00;0.00;;;;;;;4.81;53.46;102245.31;7363194;19;20015;-58
2022/04/03 03:23:31;;;;;;;0.00;0.00;;;;;;;4.78;53.51;102237.50;7362830;19;20015;-59
2022/04/03 03:25:57;;;;;;;0.00;0.00;;;;;;;4.83;53.49;102259.19;7354649;19;20042;-58
2022/04/03 03:28:22;;;;;;;0.00;0.00;;;;;;;4.81;53.50;102255.66;7362447;19;20014;-59
2022/04/03 03:30:48;;;;;;;0.00;0.00;;;;;;;4.62;53.72;102227.59;7363619;19;20023;-57
2022/04/03 03:33:14;;;;;;;0.00;0.00;;;;;;;4.71;53.52;102243.31;7359252;19;20513;-58
2022/04/03 03:35:40;;;;;;;0.00;0.00;;;;;;;4.65;54.19;102243.16;7363040;19;20019;-57
2022/04/03 03:38:05;;;;;;;0.00;0.00;;;;;;;4.55;53.89;102225.66;7363156;19;20018;-58
2022/04/03 03:40:31;;;;;;;0.00;0.00;;;;;;;4.65;54.14;102248.34;7364630;19;20107;-57
2022/04/03 03:42:56;;;;;;;0.00;0.00;;;;;;;4.61;54.09;102246.50;7360698;19;20018;-58
2022/04/03 03:45:22;;;;;;;0.00;0.00;;;;;;;4.52;54.25;102238.53;7355554;19;20111;-59
2022/04/03 03:47:48;;;;;;;0.00;0.00;;;;;;;4.49;54.18;102235.84;7358327;19;20450;-58
2022/04/03 03:50:14;;;;;;;0.00;0.00;;;;;;;4.59;54.32;102259.41;7363974;19;20017;-58
2022/04/03 03:52:43;;;;;;;0.00;0.00;;;;;;;4.55;54.02;102257.56;7355125;19;20676;-57
2022/04/03 03:55:09;;;;;;;0.00;0.00;;;;;;;4.50;53.97;102247.94;7362475;19;20030;-56
2022/04/03 03:57:35;;;;;;;0.00;0.00;;;;;;;4.52;53.96;102251.47;7360703;19;20015;-57
2022/04/03 04:00:01;;;;;;;0.00;0.00;;;;;;;4.49;54.09;102251.34;7360826;19;20034;-57
2022/04/03 04:02:26;;;;;;;0.00;0.00;;;;;;;4.46;54.46;102257.34;7359859;19;20018;-59
2022/04/03 04:04:52;;;;;;;0.00;0.00;;;;;;;4.07;54.68;102192.47;7360028;19;20030;-57
2022/04/03 04:07:17;;;;;;;0.00;0.00;;;;;;;4.31;54.32;102236.19;7353276;19;20014;-58
2022/04/03 04:09:43;;;;;;;0.00;0.00;;;;;;;4.29;54.56;102236.16;7358446;19;20474;-58
2022/04/03 04:12:09;;;;;;;0.00;0.00;;;;;;;4.35;54.82;102254.44;7356473;19;20009;-58
2022/04/03 04:14:35;;;;;;;0.00;0.00;;;;;;;4.37;55.17;102257.97;7358931;19;20030;-55
2022/04/03 04:17:01;;;;;;;0.00;0.00;;;;;;;4.35;55.00;102264.78;7354698;19;20006;-56
2022/04/03 04:19:26;;;;;;;0.10;0.10;;;;;;;4.18;55.25;102228.97;7360984;19;20018;-58
2022/04/03 04:21:52;;;;;;;0.00;0.00;;;;;;;4.26;55.10;102250.72;7350549;19;20021;-58
2022/04/03 04:24:18;;;;;;;0.10;0.10;;;;;;;4.23;54.86;102241.19;7353526;19;20027;-56
2022/04/03 04:26:43;;;;;;;0.03;0.03;;;;;;;4.30;54.88;102255.13;7360868;19;20010;-56
2022/04/03 04:29:09;;;;;;;0.00;0.00;;;;;;;4.15;54.92;102229.72;7360900;19;20013;-57
2022/04/03 04:31:34;;;;;;;0.00;0.00;;;;;;;4.21;55.31;102240.28;7362558;19;20006;-58
2022/04/03 04:33:59;;;;;;;0.00;0.00;;;;;;;4.18;55.03;102235.00;7357540;19;20047;-58
2022/04/03 04:36:26;;;;;;;0.00;0.00;;;;;;;4.19;55.17;102244.50;7362697;19;20030;-57
2022/04/03 04:38:52;;;;;;;0.00;0.00;;;;;;;4.08;55.17;102233.00;7358728;19;20014;-55
2022/04/03 04:41:17;;;;;;;0.10;0.10;;;;;;;4.13;55.14;102252.09;7361346;19;20669;-58
2022/04/03 04:43:43;;;;;;;0.00;0.00;;;;;;;4.17;55.62;102248.78;7361427;19;20501;-57
2022/04/03 04:46:09;;;;;;;0.00;0.00;;;;;;;4.11;55.28;102241.72;7355983;19;20010;-56
2022/04/03 04:48:34;;;;;;;0.00;0.00;;;;;;;4.13;55.53;102239.16;7363581;19;20717;-57
2022/04/03 04:51:01;;;;;;;0.00;0.00;;;;;;;4.00;54.99;102229.28;7356045;19;20014;-57
2022/04/03 04:53:26;;;;;;;0.00;0.00;;;;;;;4.06;55.84;102239.84;7357352;19;20010;-60
2022/04/03 04:55:52;;;;;;;0.00;0.00;;;;;;;4.09;55.62;102245.06;7362733;19;20010;-57
2022/04/03 04:58:17;;;;;;;0.00;0.00;;;;;;;4.06;55.28;102242.41;7350036;19;20006;-57
2022/04/03 05:00:43;;;;;;;0.00;0.00;;;;;;;3.92;55.63;102225.63;7362604;19;20089;-57
2022/04/03 05:03:08;;;;;;;0.00;0.00;;;;;;;4.00;55.81;102244.81;7357696;19;20567;-59
2022/04/03 05:05:35;;;;;;;0.00;0.00;;;;;;;4.02;55.69;102245.75;7361114;19;20006;-58
2022/04/03 05:08:01;;;;;;;0.03;0.03;;;;;;;3.98;55.47;102241.31;7361790;19;20014;-58
2022/04/03 05:10:29;;;;;;;0.10;0.10;;;;;;;3.99;55.61;102243.06;7361658;19;20024;-58
2022/04/03 05:12:55;;;;;;;0.00;0.00;;;;;;;3.95;55.58;102236.03;7359798;19;20885;-58
2022/04/03 05:15:21;;;;;;;0.00;0.00;;;;;;;3.80;55.78;102213.22;7357491;19;20032;-58
2022/04/03 05:17:46;;;;;;;0.00;0.00;;;;;;;3.84;55.98;102228.84;7362263;19;21331;-56
2022/04/03 05:20:13;;;;;;;0.00;0.00;;;;;;;3.12;56.41;102115.66;7357869;19;20470;-58
2022/04/03 05:22:41;;;;;;;0.00;0.00;;;;;;;3.86;56.50;102232.38;7363385;19;20023;-58
2022/04/03 05:25:10;;;;;;;0.00;0.00;;;;;;;3.83;56.12;102232.28;7349137;19;20433;-57
2022/04/03 05:27:36;;;;;;;0.00;0.00;;;;;;;3.80;56.34;102227.03;7358033;19;20014;-58
2022/04/03 05:30:03;;;;;;;0.00;0.00;;;;;;;3.85;56.72;102234.91;7362239;19;20374;-58
2022/04/03 05:32:29;;;;;;;0.00;0.00;;;;;;;3.73;56.82;102225.09;7356947;19;20052;-57
2022/04/03 05:34:56;;;;;;;0.10;0.10;;;;;;;3.47;56.45;102175.22;7361246;19;20033;-59
2022/04/03 05:37:21;;;;;;;0.00;0.00;;;;;;;3.79;56.63;102233.00;7354413;19;20010;-58
2022/04/03 05:39:48;;;;;;;0.00;0.00;;;;;;;3.82;56.50;102235.69;7353174;19;20010;-58
2022/04/03 05:42:13;;;;;;;0.00;0.00;;;;;;;3.75;56.54;102232.88;7361330;19;20573;-58
2022/04/03 05:44:39;;;;;;;0.10;0.10;;;;;;;3.70;56.69;102214.69;7357003;19;20006;-58
2022/04/03 05:47:05;;;;;;;0.00;0.00;;;;;;;3.78;56.62;102233.84;7352674;19;21050;-59
2022/04/03 05:49:31;;;;;;;0.00;0.00;;;;;;;3.77;56.06;102236.41;7360501;19;20020;-58
2022/04/03 05:51:56;;;;;;;0.08;0.08;;;;;;;3.70;56.59;102219.84;7354578;19;20014;-57
2022/04/03 05:54:21;;;;;;;0.00;0.00;;;;;;;3.70;56.44;102229.28;7359072;19;20013;-58
2022/04/03 05:56:47;;;;;;;0.10;0.10;;;;;;;3.56;56.33;102215.97;7360596;19;20395;-59
2022/04/03 05:59:12;;;;;;;0.10;0.10;;;;;;;3.48;56.60;102212.25;7354330;19;20014;-56
2022/04/03 06:01:38;;;;;;;0.00;0.00;;;;;;;3.66;56.53;102241.25;7359220;19;20011;-57
2022/04/03 06:04:03;;;;;;;0.00;0.00;;;;;;;3.61;56.18;102237.66;7352240;19;20025;-58
2022/04/03 06:06:29;;;;;;;0.00;0.00;;;;;;;3.58;55.79;102238.41;7359292;19;20052;-58
2022/04/03 06:08:54;;;;;;;0.00;0.00;;;;;;;3.51;56.10;102238.19;7355958;19;20010;-58
2022/04/03 06:11:20;;;;;;;0.00;0.00;;;;;;;3.54;55.43;102241.72;7355788;19;20468;-58
2022/04/03 06:13:45;;;;;;;0.00;0.00;;;;;;;3.51;55.72;102249.41;7358607;19;20010;-57
2022/04/03 06:16:10;;;;;;;0.00;0.00;;;;;;;3.51;56.09;102253.69;7354471;19;20017;-58
2022/04/03 06:18:36;;;;;;;0.00;0.00;;;;;;;3.49;55.81;102255.31;7360072;19;20035;-56
2022/04/03 06:21:01;;;;;;;0.00;0.00;;;;;;;3.46;56.37;102260.41;7357737;19;20015;-58
2022/04/03 06:23:27;;;;;;;0.00;0.00;;;;;;;3.43;56.22;102261.19;7361612;19;20006;-57
2022/04/03 06:25:55;;;;;;;0.00;0.00;;;;;;;3.33;56.56;102241.94;7360327;19;20025;-59
2022/04/03 06:28:21;;;;;;;0.00;0.00;;;;;;;3.39;56.27;102260.19;7360596;19;20006;-58
2022/04/03 06:30:46;;;;;;;0.00;0.00;;;;;;;3.38;56.94;102255.00;7364440;19;20699;-58
2022/04/03 06:33:12;;;;;;;0.00;0.00;;;;;;;3.35;56.91;102253.22;7363934;19;20007;-57
2022/04/03 06:35:38;;;;;;;0.00;0.00;;;;;;;3.19;56.96;102229.41;7360061;19;20036;-58
2022/04/03 06:38:04;;;;;;;0.00;0.00;;;;;;;3.37;57.13;102264.44;7362456;19;20014;-58
2022/04/03 06:40:32;;;;;;;0.00;0.00;;;;;;;3.27;57.41;102244.31;7363634;19;20014;-58
2022/04/03 06:42:57;;;;;;;0.00;0.00;;;;;;;3.20;57.12;102229.50;7357611;19;20006;-58
2022/04/03 06:45:23;;;;;;;0.00;0.00;;;;;;;3.36;56.94;102265.28;7364916;19;20015;-56
2022/04/03 06:47:48;;;;;;;0.00;0.00;;;;;;;3.09;56.35;102213.66;7363887;19;20003;-58
2022/04/03 06:50:14;;;;;;;0.00;0.00;;;;;;;3.36;57.14;102260.13;7362146;19;20022;-58
2022/04/03 06:52:39;;;;;;;0.00;0.00;;;;;;;3.36;57.40;102251.50;7358907;19;20081;-58
2022/04/03 06:55:07;;;;;;;0.00;0.00;;;;;;;3.46;57.01;102271.63;7360298;19;20013;-58
2022/04/03 06:57:32;;;;;;;0.00;0.00;;;;;;;3.44;57.08;102251.72;7362862;19;20919;-58
2022/04/03 06:59:58;;;;;;;0.10;0.10;;;;;;;3.50;57.57;102263.16;7361727;19;20078;-57
2022/04/03 07:02:24;;;;;;;0.00;0.00;;;;;;;3.56;57.54;102265.03;7356011;19;20014;-57
2022/04/03 07:04:49;;;;;;;0.00;0.00;;;;;;;3.54;57.00;102258.94;7363159;19;20044;-57
2022/04/03 07:07:24;;;;;;;0.08;0.08;;;;;;;3.66;56.58;102264.50;7348282;19;20025;-57
2022/04/03 07:09:50;;;;;;;0.00;0.00;;;;;;;3.69;57.58;102264.56;7356882;19;20023;-58
2022/04/03 07:12:17;;;;;;;0.05;0.05;;;;;;;3.72;57.47;102264.69;7359196;19;20031;-58
2022/04/03 07:14:42;;;;;;;0.00;0.00;;;;;;;3.78;57.13;102269.16;7361759;19;20015;-58
2022/04/03 07:17:08;;;;;;;0.03;0.03;;;;;;;3.86;57.57;102284.06;7361551;19;20029;-58
2022/04/03 07:19:34;;;;;;;0.00;0.00;;;;;;;3.81;57.17;102259.78;7358961;19;20403;-59
2022/04/03 07:21:59;;;;;;;0.00;0.00;;;;;;;3.96;57.42;102272.28;7352849;19;20027;-58
2022/04/03 07:24:26;;;;;;;0.00;0.00;;;;;;;4.02;57.92;102276.75;7348210;19;20829;-58
2022/04/03 07:26:53;;;;;;;0.00;0.00;;;;;;;4.06;58.31;102278.63;7360247;19;25235;-59
2022/04/03 07:29:19;;;;;;;0.10;0.10;;;;;;;4.08;57.59;102269.19;7360473;19;20397;-58
2022/04/03 07:31:44;;;;;;;0.00;0.00;;;;;;;4.18;58.18;102273.78;7356488;19;20014;-57
2022/04/03 07:34:10;;;;;;;0.00;0.00;;;;;;;4.24;58.33;102266.19;7360225;19;20010;-58
2022/04/03 07:36:35;;;;;;;0.00;0.00;;;;;;;4.18;58.87;102247.94;7354370;19;20010;-58
2022/04/03 07:39:01;;;;;;;0.10;0.10;;;;;;;4.35;58.83;102264.78;7358371;19;20014;-58
2022/04/03 07:41:26;;;;;;;0.00;0.00;;;;;;;4.47;58.65;102268.56;7359285;19;20014;-58
2022/04/03 07:43:52;;;;;;;0.00;0.00;;;;;;;4.52;58.56;102267.84;7357226;19;20022;-58
2022/04/03 07:46:18;;;;;;;0.00;0.00;;;;;;;4.58;58.15;102268.00;7351211;19;20010;-58
2022/04/03 07:48:44;;;;;;;0.00;0.00;;;;;;;4.52;57.95;102241.09;7355342;19;20634;-58
2022/04/03 07:51:11;;;;;;;0.00;0.00;;;;;;;4.73;57.85;102277.03;7347303;19;20634;-58
2022/04/03 07:53:36;;;;;;;0.00;0.00;;;;;;;4.71;58.60;102264.03;7358688;19;20925;-57
2022/04/03 07:56:02;;;;;;;0.00;0.00;;;;;;;4.65;58.58;102245.75;7359828;19;20015;-57
2022/04/03 07:58:27;;;;;;;0.10;0.10;;;;;;;4.72;57.93;102239.91;7359624;19;20007;-56
2022/04/03 08:00:53;;;;;;;0.00;0.00;;;;;;;4.91;58.37;102261.94;7360776;19;20532;-58
2022/04/03 08:03:19;;;;;;;0.00;0.00;;;;;;;5.00;57.25;102264.78;7356855;19;20715;-58
2022/04/03 08:05:44;;;;;;;0.00;0.00;;;;;;;4.79;58.77;102215.94;7353401;19;20042;-57
2022/04/03 08:08:09;;;;;;;0.00;0.00;;;;;;;5.21;57.08;102267.03;7362086;19;21933;-57
2022/04/03 08:10:35;;;;;;;0.10;0.10;;;;;;;5.33;57.24;102275.09;7358409;19;20007;-58
2022/04/03 08:13:00;;;;;;;0.00;0.00;;;;;;;5.41;58.71;102281.31;7352419;19;20025;-57
2022/04/03 08:15:28;;;;;;;0.00;0.00;;;;;;;5.20;58.35;102218.66;7356420;19;20039;-58
2022/04/03 08:17:54;;;;;;;0.00;0.00;;;;;;;5.49;59.28;102252.16;7359292;19;20343;-57
2022/04/03 08:20:19;;;;;;;0.00;0.00;;;;;;;5.70;58.91;102258.69;7361048;19;20094;-57
2022/04/03 08:22:47;;;;;;;0.00;0.00;;;;;;;5.85;59.85;102265.94;7356229;19;20022;-57
2022/04/03 08:25:13;;;;;;;0.00;0.00;;;;;;;5.96;58.51;102264.47;7347030;19;20085;-58
2022/04/03 08:27:48;;;;;;;0.00;0.00;;;;;;;6.11;57.97;102250.06;7351646;19;20021;-59
2022/04/03 08:30:23;;;;;;;0.00;0.00;;;;;;;6.24;58.75;102257.28;7359245;19;20031;-58
2022/04/03 08:32:49;;;;;;;0.00;0.00;;;;;;;6.31;59.61;102253.06;7359293;19;20014;-57
2022/04/03 08:35:15;;;;;;;0.00;0.00;;;;;;;6.50;58.02;102253.47;7357374;19;20090;-58
2022/04/03 08:37:41;;;;;;;0.00;0.00;;;;;;;6.69;57.28;102246.91;7360719;19;20019;-58
2022/04/03 08:40:07;;;;;;;0.00;0.00;;;;;;;6.92;59.73;102255.06;7360775;19;20364;-59
2022/04/03 08:42:34;;;;;;;0.00;0.00;;;;;;;7.14;59.73;102245.03;7358109;19;20019;-58
2022/04/03 08:44:59;;;;;;;0.00;0.00;;;;;;;7.39;59.15;102249.75;7356463;19;20950;-58
2022/04/03 08:47:26;;;;;;;0.00;0.00;;;;;;;7.66;58.05;102246.72;7356887;19;20101;-58
2022/04/03 08:49:57;;;;;;;0.00;0.00;;;;;;;7.89;58.24;102244.41;7344058;19;20721;-58
2022/04/03 08:52:23;;;;;;;0.00;0.00;;;;;;;8.16;57.99;102243.00;7362389;19;20018;-58
2022/04/03 08:54:49;;;;;;;0.08;0.08;;;;;;;8.40;57.33;102247.66;7361782;19;20799;-54
2022/04/03 08:57:15;;;;;;;0.00;0.00;;;;;;;8.63;57.61;102251.38;7359325;19;20033;-54
2022/04/03 08:59:40;;;;;;;0.00;0.00;;;;;;;8.70;57.09;102221.06;7356155;19;20107;-55
2022/04/03 09:02:06;;;;;;;0.00;0.00;;;;;;;9.06;57.21;102237.00;7359875;19;20093;-52
2022/04/03 09:04:32;;;;;;;0.00;0.00;;;;;;;9.34;56.49;102239.84;7353042;19;20499;-55
2022/04/03 09:06:59;;;;;;;0.00;0.00;;;;;;;9.58;56.61;102237.41;7358633;19;20015;-55
2022/04/03 09:09:25;;;;;;;0.00;0.00;;;;;;;9.86;55.52;102232.31;7356645;19;20014;-54
2022/04/03 09:12:14;;;;;;;0.00;0.00;;;;;;;10.20;55.04;102217.66;7359922;19;20030;-54
2022/04/03 09:14:56;;;;;;;0.00;0.00;;;;;;;10.45;55.03;102229.09;7257463;19;2004524;-53
2022/04/03 09:17:38;;;;;;;0.00;0.00;;;;;;;10.75;54.63;102232.63;7362797;19;22339;-55
2022/04/03 09:20:12;;;;;;;0.00;0.00;;;;;;;11.02;54.16;102221.31;7362084;19;20028;-55
2022/04/03 09:22:41;;;;;;;0.00;0.00;;;;;;;11.21;54.12;102222.19;7361365;19;20014;-54
2022/04/03 09:25:09;;;;;;;0.00;0.00;;;;;;;11.40;53.76;102216.91;7349469;19;20021;-55
2022/04/03 09:27:35;;;;;;;0.00;0.00;;;;;;;11.62;53.34;102212.50;7358717;19;20014;-55
2022/04/03 09:30:04;;;;;;;0.00;0.00;;;;;;;11.90;53.42;102218.53;7349693;19;20021;-55
2022/04/03 09:32:29;;;;;;;0.00;0.00;;;;;;;12.10;53.03;102207.09;7354528;19;20347;-55
2022/04/03 09:34:57;;;;;;;0.00;0.00;;;;;;;12.41;52.61;102213.03;7358908;19;20014;-53
2022/04/03 09:37:22;;;;;;;0.00;0.00;;;;;;;12.64;52.26;102202.41;7359020;19;20021;-55
2022/04/03 09:39:48;;;;;;;0.00;0.00;;;;;;;12.95;52.01;102211.78;7338164;19;20859;-56
2022/04/03 09:42:15;;;;;;;0.00;0.00;;;;;;;13.17;51.43;102209.81;7354749;19;22754;-56
2022/04/03 09:44:43;;;;;;;0.00;0.00;;;;;;;13.42;51.21;102201.75;7357860;19;20056;-56
2022/04/03 09:47:14;;;;;;;;;;;;;;;13.84;51.55;102199.50;7352439;19;20488;-54
2022/04/03 09:49:43;;;;;;;0.00;0.00;;;;;;;13.98;48.77;102202.84;7356763;19;19997;-55
2022/04/03 09:52:09;;;;;;;0.00;0.00;;;;;;;14.09;48.68;102195.72;7352874;19;20576;-55
2022/04/03 09:54:38;;;;;;;0.00;0.00;;;;;;;14.32;48.25;102191.88;7359510;19;20029;-55
2022/04/03 09:57:25;;;;;;;0.00;0.00;;;;;;;14.50;48.89;102192.53;7360885;19;20509;-56
2022/04/03 09:59:54;;;;;;;0.00;0.00;;;;;;;14.54;47.22;102193.31;7351359;19;20045;-56
2022/04/03 10:02:20;;;;;;;0.10;0.10;;;;;;;14.47;46.73;102175.88;7364123;19;20458;-56
2022/04/03 10:04:47;;;;;;;0.00;0.00;;;;;;;14.40;46.17;102171.63;7364738;19;20026;-56
2022/04/03 10:07:13;;;;;;;0.00;0.00;;;;;;;14.37;46.86;102179.56;7371570;19;20026;-56
2022/04/03 10:09:47;;;;;;;0.00;0.00;;;;;;;14.38;46.98;102181.28;7369233;19;20107;-56
2022/04/03 10:12:18;;;;;;;0.00;0.00;;;;;;;14.47;47.40;102178.53;7370616;19;20038;-54
2022/04/03 10:14:46;;;;;;;0.00;0.00;;;;;;;14.63;46.28;102169.53;7368309;19;20590;-56
2022/04/03 10:17:13;;;;;;;0.00;0.00;;;;;;;14.80;46.18;102158.75;7370579;19;20508;-56
2022/04/03 10:19:40;;;;;;;0.10;0.10;;;;;;;15.14;46.01;102179.19;7368774;19;20014;-57
2022/04/03 10:22:22;;;;;;;0.08;0.08;;;;;;;15.52;45.53;102181.13;7370369;19;20399;-55
2022/04/03 10:24:53;;;;;;;0.00;0.00;;;;;;;15.80;44.39;102171.78;7369569;19;20015;-55
2022/04/03 10:27:23;;;;;;;0.00;0.00;;;;;;;16.18;44.69;102171.84;7370835;19;20117;-55
2022/04/03 10:29:49;;;;;;;0.00;0.00;;;;;;;16.55;43.45;102166.59;7369269;19;20030;-56
2022/04/03 10:32:33;;;;;;;0.00;0.00;;;;;;;17.03;45.04;102174.19;7371305;19;20017;-56
2022/04/03 10:35:09;;;;;;;0.00;0.00;;;;;;;17.31;41.38;102154.06;7363990;19;20007;-55
2022/04/03 10:37:38;;;;;;;0.00;0.00;;;;;;;17.63;40.87;102144.38;7362923;19;20653;-55
2022/04/03 10:40:16;;;;;;;0.00;0.00;;;;;;;18.10;41.76;102158.00;7370125;19;20835;-55
2022/04/03 10:42:53;;;;;;;0.00;0.00;;;;;;;18.42;42.12;102141.97;7370215;19;20010;-55
2022/04/03 10:45:19;;;;;;;0.10;0.10;;;;;;;18.72;40.48;102152.47;7370836;19;20074;-53
2022/04/03 10:47:46;;;;;;;0.00;0.00;;;;;;;19.06;39.41;102144.25;7370549;19;20604;-56
2022/04/03 10:50:13;;;;;;;0.00;0.00;;;;;;;19.33;38.22;102141.53;7366282;19;20006;-56
2022/04/03 10:52:39;;;;;;;0.00;0.00;;;;;;;19.62;38.60;102140.50;7365372;19;20032;-56
2022/04/03 10:55:25;;;;;;;0.00;0.00;;;;;;;20.14;40.92;102138.47;7370021;19;20407;-55
2022/04/03 10:58:04;;;;;;;0.00;0.00;;;;;;;20.36;38.21;102135.81;7367056;19;20010;-56
2022/04/03 11:00:29;;;;;;;0.10;0.10;;;;;;;20.31;35.44;102136.00;7367119;19;20006;-55
2022/04/03 11:02:55;;;;;;;0.00;0.00;;;;;;;20.22;34.77;102125.75;7368230;19;20018;-55
2022/04/03 11:05:23;;;;;;;0.00;0.00;;;;;;;20.18;35.54;102126.81;7368852;19;20027;-56
2022/04/03 11:07:53;;;;;;;0.10;0.10;;;;;;;20.17;35.24;102125.06;7369939;19;20039;-55
2022/04/03 11:10:54;;;;;;;0.00;0.00;;;;;;;20.53;38.12;102127.19;7363286;19;20107;-55
2022/04/03 11:13:34;;;;;;;0.00;0.00;;;;;;;20.64;34.85;102119.66;7249466;19;2004858;-55
2022/04/03 11:16:05;;;;;;;0.00;0.00;;;;;;;20.65;35.11;102113.41;7361626;19;20074;-55
2022/04/03 11:18:39;;;;;;;0.10;0.10;;;;;;;20.79;34.89;102119.00;7361795;19;20002;-55
2022/04/03 11:21:26;;;;;;;0.10;0.10;;;;;;;21.04;37.19;102107.31;7353838;19;20007;-56
2022/04/03 11:24:05;;;;;;;0.00;0.00;;;;;;;21.19;36.21;102085.38;7357259;19;20426;-55
2022/04/03 11:26:32;;;;;;;0.00;0.00;;;;;;;21.46;32.50;102093.91;7362233;19;20548;-56
2022/04/03 11:28:58;;;;;;;0.10;0.10;;;;;;;21.70;32.48;102092.78;7359924;19;20113;-55
2022/04/03 11:31:24;;;;;;;0.10;0.10;;;;;;;21.81;32.67;102094.91;7363442;19;20111;-54